createdAt,value
2019-05-15T00:00:38.628Z,9.85
2019-05-15T00:03:41.450Z,10.02
2019-05-15T00:06:45.072Z,9.93
2019-05-15T00:09:49.187Z,9.91
2019-05-15T00:12:52.317Z,9.92
2019-05-15T00:15:55.248Z,9.94
2019-05-15T00:18:59.059Z,9.85
2019-05-15T00:22:02.291Z,9.72
2019-05-15T00:25:05.407Z,9.88
2019-05-15T00:28:09.428Z,9.86
2019-05-15T00:31:12.791Z,9.78
2019-05-15T00:34:18.082Z,9.84
2019-05-15T00:37:20.532Z,9.76
2019-05-15T00:40:23.442Z,9.62
2019-05-15T00:43:28.934Z,9.48
2019-05-15T00:46:31.178Z,9.43
2019-05-15T00:49:34.098Z,9.27
2019-05-15T00:52:39.121Z,9.50
2019-05-15T00:55:42.361Z,9.50
2019-05-15T00:58:45.302Z,9.62
2019-05-15T01:01:48.759Z,9.59
2019-05-15T01:04:51.939Z,9.66
2019-05-15T01:07:55.260Z,9.61
2019-05-15T01:10:58.384Z,9.50
2019-05-15T01:14:01.482Z,9.40
2019-05-15T01:17:04.363Z,9.42
2019-05-15T01:20:08.465Z,9.61
2019-05-15T01:23:11.722Z,9.80
2019-05-15T01:26:14.629Z,9.33
2019-05-15T01:29:18.295Z,9.16
2019-05-15T01:32:21.712Z,9.31
2019-05-15T01:35:24.630Z,9.05
2019-05-15T01:38:28.021Z,9.01
2019-05-15T01:41:31.150Z,8.89
2019-05-15T01:44:34.086Z,8.75
2019-05-15T01:47:38.862Z,9.10
2019-05-15T01:50:41.821Z,8.98
2019-05-15T01:53:44.984Z,8.82
2019-05-15T01:56:49.497Z,8.90
2019-05-15T01:59:57.101Z,8.97
2019-05-15T02:02:58.722Z,9.01
2019-05-15T02:06:02.081Z,9.21
2019-05-15T02:09:08.262Z,8.91
2019-05-15T02:12:11.460Z,8.97
2019-05-15T02:15:14.616Z,8.89
2019-05-15T02:18:19.191Z,8.64
2019-05-15T02:21:22.345Z,8.54
2019-05-15T02:24:28.387Z,8.53
2019-05-15T02:27:31.610Z,8.59
2019-05-15T02:30:34.646Z,8.59
2019-05-15T02:33:39.946Z,8.49
2019-05-15T02:36:42.385Z,8.58
2019-05-15T02:39:45.560Z,8.61
2019-05-15T02:42:49.583Z,8.58
2019-05-15T02:45:52.621Z,8.64
2019-05-15T02:48:55.536Z,8.53
2019-05-15T02:52:00.144Z,8.58
2019-05-15T02:55:03.660Z,8.58
2019-05-15T02:58:09.647Z,8.35
2019-05-15T03:01:11.393Z,8.42
2019-05-15T03:04:14.320Z,8.26
2019-05-15T03:07:19.296Z,8.05
2019-05-15T03:10:22.047Z,8.00
2019-05-15T03:13:25.083Z,8.16
2019-05-15T03:16:30.337Z,8.23
2019-05-15T03:19:32.810Z,8.12
2019-05-15T03:22:35.722Z,8.13
2019-05-15T03:25:40.540Z,8.29
2019-05-15T03:28:44.586Z,8.07
2019-05-15T03:32:01.343Z,8.22
2019-05-15T03:34:56.043Z,7.99
2019-05-15T03:37:59.842Z,8.24
2019-05-15T03:41:01.955Z,8.16
2019-05-15T03:44:04.861Z,8.16
2019-05-15T03:47:09.239Z,7.94
2019-05-15T03:50:13.405Z,7.97
2019-05-15T03:53:18.950Z,8.04
2019-05-15T03:56:21.484Z,8.12
2019-05-15T03:59:24.409Z,8.09
2019-05-15T04:02:28.789Z,7.85
2019-05-15T04:05:32.006Z,8.07
2019-05-15T04:08:34.900Z,7.95
2019-05-15T04:11:38.872Z,7.90
2019-05-15T04:14:41.926Z,7.92
2019-05-15T04:17:44.848Z,7.87
2019-05-15T04:20:49.304Z,7.75
2019-05-15T04:23:58.588Z,7.89
2019-05-15T04:27:06.401Z,7.95
2019-05-15T04:30:10.544Z,7.93
2019-05-15T04:33:13.103Z,8.27
2019-05-15T04:36:18.913Z,8.20
2019-05-15T04:39:20.963Z,8.11
2019-05-15T04:42:23.871Z,7.91
2019-05-15T04:45:31.789Z,7.96
2019-05-15T04:48:31.632Z,7.87
2019-05-15T04:51:34.529Z,7.98
2019-05-15T04:54:40.218Z,7.99
2019-05-15T04:57:42.263Z,7.66
2019-05-15T05:00:55.171Z,7.80
2019-05-15T05:03:58.903Z,7.68
2019-05-15T05:07:02.598Z,8.00
2019-05-15T05:10:09.171Z,8.29
2019-05-15T05:13:10.833Z,8.12
2019-05-15T05:16:13.736Z,8.23
2019-05-15T05:19:19.364Z,8.34
2019-05-15T05:22:21.457Z,8.40
2019-05-15T05:25:24.387Z,8.72
2019-05-15T05:28:28.974Z,8.67
2019-05-15T05:31:32.125Z,8.63
2019-05-15T05:34:35.058Z,8.68
2019-05-15T05:37:38.929Z,8.70
2019-05-15T05:40:42.793Z,8.68
2019-05-15T05:43:48.581Z,8.82
2019-05-15T05:46:50.940Z,8.79
2019-05-15T05:49:53.845Z,8.87
2019-05-15T05:52:57.928Z,8.96
2019-05-15T05:56:01.002Z,8.95
2019-05-15T05:59:03.908Z,9.14
2019-05-15T06:02:08.214Z,9.06
2019-05-15T06:05:11.372Z,9.11
2019-05-15T06:08:14.306Z,9.19
2019-05-15T06:11:18.421Z,9.18
2019-05-15T06:14:21.855Z,9.21
2019-05-15T06:17:24.775Z,9.16
2019-05-15T06:20:28.264Z,9.25
2019-05-15T06:23:34.724Z,9.18
2019-05-15T06:26:38.627Z,9.24
2019-05-15T06:29:41.722Z,9.53
2019-05-15T06:33:00.789Z,9.56
2019-05-15T06:35:49.478Z,9.53
2019-05-15T06:38:52.363Z,9.76
2019-05-15T06:41:55.282Z,9.77
2019-05-15T06:44:58.901Z,9.94
2019-05-15T06:48:02.031Z,9.99
2019-05-15T06:51:04.928Z,9.94
2019-05-15T06:54:08.787Z,10.11
2019-05-15T06:57:11.874Z,10.16
2019-05-15T07:00:14.768Z,10.12
2019-05-15T07:03:24.956Z,10.31
2019-05-15T07:06:22.547Z,10.43
2019-05-15T07:09:25.522Z,10.51
2019-05-15T07:12:28.425Z,10.73
2019-05-15T07:15:31.687Z,10.75
2019-05-15T07:18:34.612Z,11.04
2019-05-15T07:21:38.781Z,11.19
2019-05-15T07:24:41.947Z,11.33
2019-05-15T07:27:44.851Z,11.38
2019-05-15T07:30:49.573Z,11.50
2019-05-15T07:33:52.786Z,11.25
2019-05-15T07:36:55.704Z,11.45
2019-05-15T07:39:59.194Z,11.68
2019-05-15T07:43:03.781Z,11.61
2019-05-15T07:46:08.421Z,11.77
2019-05-15T07:49:11.517Z,11.72
2019-05-15T07:52:14.795Z,11.98
2019-05-15T07:55:18.562Z,12.05
2019-05-15T07:58:22.112Z,12.12
2019-05-15T08:01:25.620Z,12.14
2019-05-15T08:04:30.660Z,12.07
2019-05-15T08:07:33.372Z,12.25
2019-05-15T08:10:36.329Z,12.27
2019-05-15T08:13:39.518Z,12.42
2019-05-15T08:16:42.448Z,12.50
2019-05-15T08:19:45.708Z,12.58
2019-05-15T08:25:53.444Z,12.59
2019-05-15T08:26:05.671Z,12.64
2019-05-15T08:28:57.942Z,12.73
2019-05-15T08:32:01.013Z,12.72
2019-05-15T08:35:05.080Z,12.77
2019-05-15T08:38:08.865Z,12.87
2019-05-15T08:41:12.019Z,12.98
2019-05-15T08:44:14.963Z,13.17
2019-05-15T08:47:19.123Z,13.09
2019-05-15T08:50:22.704Z,13.20
2019-05-15T08:53:25.623Z,13.12
2019-05-15T08:56:29.065Z,13.19
2019-05-15T08:59:33.444Z,13.40
2019-05-15T09:02:38.276Z,13.33
2019-05-15T09:05:41.455Z,13.44
2019-05-15T09:08:44.380Z,13.51
2019-05-15T09:11:48.300Z,13.69
2019-05-15T09:14:51.825Z,13.69
2019-05-15T09:18:08.039Z,13.91
2019-05-15T09:20:59.611Z,14.00
2019-05-15T09:24:02.617Z,13.96
2019-05-15T09:27:09.435Z,13.92
2019-05-15T09:30:11.460Z,13.65
2019-05-15T09:33:14.384Z,14.09
2019-05-15T09:36:20.133Z,14.20
2019-05-15T09:39:22.477Z,14.24
2019-05-15T09:42:25.381Z,14.27
2019-05-15T09:45:28.642Z,14.49
2019-05-15T09:48:31.997Z,14.56
2019-05-15T09:51:34.920Z,14.75
2019-05-15T09:54:38.742Z,14.68
2019-05-15T09:57:41.858Z,14.89
2019-05-15T10:00:44.873Z,15.11
2019-05-15T10:03:48.494Z,14.90
2019-05-15T10:06:51.621Z,15.21
2019-05-15T10:09:54.539Z,14.71
2019-05-15T10:12:59.439Z,14.92
2019-05-15T10:16:02.604Z,15.25
2019-05-15T10:19:05.533Z,15.35
2019-05-15T10:22:09.659Z,15.54
2019-05-15T10:25:13.143Z,15.56
2019-05-15T10:28:18.754Z,15.85
2019-05-15T10:31:21.538Z,15.84
2019-05-15T10:34:24.500Z,15.56
2019-05-15T10:37:28.427Z,15.74
2019-05-15T10:40:31.556Z,16.07
2019-05-15T10:43:35.292Z,15.97
2019-05-15T10:46:38.359Z,16.10
2019-05-15T10:49:41.319Z,16.24
2019-05-15T10:52:44.239Z,16.17
2019-05-15T10:55:49.571Z,16.46
2019-05-15T10:58:52.315Z,16.65
2019-05-15T11:01:55.224Z,16.94
2019-05-15T11:04:58.500Z,16.66
2019-05-15T11:08:01.407Z,16.62
2019-05-15T11:11:04.329Z,16.88
2019-05-15T11:14:09.098Z,16.80
2019-05-15T11:17:12.074Z,16.94
2019-05-15T11:20:15.606Z,17.10
2019-05-15T11:23:19.906Z,17.18
2019-05-15T11:26:23.341Z,17.55
2019-05-15T11:29:26.262Z,17.53
2019-05-15T11:32:29.484Z,17.61
2019-05-15T11:35:32.616Z,17.75
2019-05-15T11:38:37.989Z,17.75
2019-05-15T11:41:40.376Z,17.65
2019-05-15T11:44:43.376Z,17.71
2019-05-15T11:47:48.305Z,18.13
2019-05-15T11:50:51.142Z,18.00
2019-05-15T11:53:54.415Z,18.19
2019-05-15T11:56:59.648Z,18.24
2019-05-15T12:00:03.763Z,18.34
2019-05-15T12:03:08.964Z,18.10
2019-05-15T12:06:18.494Z,18.33
2019-05-15T12:09:18.748Z,18.77
2019-05-15T12:12:21.816Z,18.74
2019-05-15T12:15:24.732Z,19.02
2019-05-15T12:18:28.571Z,19.16
2019-05-15T12:21:32.059Z,19.09
2019-05-15T12:24:36.758Z,19.05
2019-05-15T12:27:40.509Z,19.13
2019-05-15T12:30:43.622Z,19.33
2019-05-15T12:33:48.878Z,19.08
2019-05-15T12:36:57.448Z,19.38
2019-05-15T13:01:31.581Z,20.03
2019-05-15T13:04:34.498Z,19.70
2019-05-15T13:07:37.917Z,19.83
2019-05-15T13:10:40.988Z,20.20
2019-05-15T13:13:44.353Z,20.20
2019-05-15T13:16:48.021Z,20.39
2019-05-15T13:19:51.500Z,20.43
2019-05-15T13:22:54.398Z,20.21
2019-05-15T13:25:59.389Z,20.21
2019-05-15T13:29:02.470Z,20.26
2019-05-15T13:32:07.904Z,20.05
2019-05-15T13:35:10.819Z,20.34
2019-05-15T13:38:13.753Z,20.13
2019-05-15T13:41:19.021Z,20.60
2019-05-15T13:44:21.628Z,20.38
2019-05-15T13:47:24.563Z,20.50
2019-05-15T13:50:28.486Z,20.76
2019-05-15T13:53:31.600Z,20.67
2019-05-15T13:56:34.529Z,20.72
2019-05-15T13:59:39.083Z,20.80
2019-05-15T14:02:42.272Z,20.79
2019-05-15T14:05:49.767Z,20.51
2019-05-15T14:08:51.651Z,20.54
2019-05-15T14:11:54.579Z,20.78
2019-05-15T14:14:58.897Z,20.81
2019-05-15T14:18:01.825Z,21.12
2019-05-15T14:21:04.814Z,21.08
2019-05-15T14:24:08.955Z,20.19
2019-05-15T14:27:12.168Z,20.50
2019-05-15T14:30:18.051Z,21.31
2019-05-15T14:33:20.362Z,21.15
2019-05-15T14:36:23.303Z,20.44
2019-05-15T14:39:26.217Z,20.39
2019-05-15T14:42:29.467Z,20.73
2019-05-15T14:45:32.509Z,20.47
2019-05-15T14:48:35.488Z,20.78
2019-05-15T14:51:39.110Z,20.95
2019-05-15T14:54:42.344Z,21.21
2019-05-15T14:57:45.277Z,20.93
2019-05-15T15:00:50.022Z,20.85
2019-05-15T15:03:53.687Z,19.79
2019-05-15T15:06:57.988Z,20.43
2019-05-15T15:10:01.467Z,20.24
2019-05-15T15:13:04.388Z,20.34
2019-05-15T15:16:08.372Z,20.39
2019-05-15T15:19:11.646Z,20.66
2019-05-15T15:22:14.524Z,20.32
2019-05-15T15:25:17.444Z,18.97
2019-05-15T15:28:20.702Z,18.36
2019-05-15T15:31:23.661Z,18.17
2019-05-15T15:34:28.245Z,18.99
2019-05-15T15:37:32.499Z,18.97
2019-05-15T15:40:35.429Z,19.13
2019-05-15T15:43:38.817Z,19.10
2019-05-15T15:46:41.852Z,19.31
2019-05-15T15:49:44.875Z,19.29
2019-05-15T15:52:48.871Z,18.92
2019-05-15T15:55:52.101Z,18.23
2019-05-15T15:58:55.327Z,18.21
2019-05-15T16:01:59.895Z,17.61
2019-05-15T16:05:03.490Z,17.35
2019-05-15T16:08:08.517Z,17.38
2019-05-15T16:11:11.645Z,17.37
2019-05-15T16:14:14.899Z,17.55
2019-05-15T16:17:18.283Z,17.59
2019-05-15T16:20:21.245Z,17.78
2019-05-15T16:23:24.138Z,17.62
2019-05-15T16:26:29.045Z,17.57
2019-05-15T16:29:32.277Z,17.35
2019-05-15T16:32:35.496Z,17.18
2019-05-15T16:35:38.411Z,17.05
2019-05-15T16:38:41.367Z,16.99
2019-05-15T16:41:44.310Z,17.02
2019-05-15T16:44:49.017Z,18.00
2019-05-15T16:47:52.085Z,19.32
2019-05-15T16:50:55.019Z,19.16
2019-05-15T16:53:58.194Z,18.75
2019-05-15T16:57:01.253Z,18.88
2019-05-15T17:00:04.756Z,19.09
2019-05-15T17:03:13.904Z,19.01
2019-05-15T17:06:12.615Z,19.43
2019-05-15T17:09:21.070Z,19.20
2019-05-15T17:12:20.379Z,19.45
2019-05-15T17:15:23.294Z,19.17
2019-05-15T17:18:26.907Z,19.49
2019-05-15T17:21:29.903Z,19.49
2019-05-15T17:24:32.807Z,18.24
2019-05-15T17:27:36.476Z,17.39
2019-05-15T17:30:39.390Z,17.17
2019-05-15T17:33:43.765Z,17.17
2019-05-15T17:36:48.871Z,17.05
2019-05-15T17:39:51.537Z,16.81
2019-05-15T17:42:54.483Z,16.96
2019-05-15T17:45:58.445Z,17.01
2019-05-15T17:49:08.222Z,16.75
2019-05-15T17:52:06.264Z,16.71
2019-05-15T17:55:10.088Z,16.86
2019-05-15T17:58:13.008Z,16.80
2019-05-15T18:01:15.933Z,16.75
2019-05-15T18:04:19.157Z,16.65
2019-05-15T18:07:22.252Z,16.62
2019-05-15T18:10:25.276Z,16.40
2019-05-15T18:13:28.762Z,16.35
2019-05-15T18:16:32.320Z,16.33
2019-05-15T18:19:37.691Z,16.41
2019-05-15T18:22:40.417Z,16.35
2019-05-15T18:25:43.422Z,16.10
2019-05-15T18:28:48.762Z,16.15
2019-05-15T18:31:51.298Z,15.96
2019-05-15T18:34:54.613Z,15.94
2019-05-15T18:37:59.188Z,15.90
2019-05-15T18:41:03.873Z,15.92
2019-05-15T18:44:06.998Z,15.79
2019-05-15T18:47:10.750Z,15.62
2019-05-15T18:50:14.401Z,15.61
2019-05-15T18:53:17.325Z,15.50
2019-05-15T18:56:20.968Z,15.43
2019-05-15T18:59:24.016Z,15.87
2019-05-15T19:02:28.088Z,15.24
2019-05-15T19:05:31.167Z,15.39
2019-05-15T19:08:34.096Z,14.94
2019-05-15T19:11:38.420Z,14.82
2019-05-15T19:14:41.527Z,14.48
2019-05-15T19:17:44.854Z,14.34
2019-05-15T19:20:48.650Z,14.65
2019-05-15T19:23:51.669Z,14.30
2019-05-15T19:26:54.681Z,14.17
2019-05-15T19:29:59.056Z,14.05
2019-05-15T19:33:02.251Z,14.02
2019-05-15T19:36:07.762Z,13.99
2019-05-15T19:39:11.358Z,13.94
2019-05-15T19:42:14.439Z,13.87
2019-05-15T19:45:18.192Z,13.68
2019-05-15T19:48:21.225Z,13.85
2019-05-15T19:51:24.172Z,13.93
2019-05-15T19:54:28.892Z,13.69
2019-05-15T19:57:32.020Z,13.67
2019-05-15T20:00:35.126Z,13.85
2019-05-15T20:03:49.345Z,13.45
2019-05-15T20:06:44.742Z,13.24
2019-05-15T20:09:47.791Z,13.31
2019-05-15T20:12:50.985Z,12.98
2019-05-15T20:15:54.084Z,13.13
2019-05-15T20:18:58.118Z,13.10
2019-05-15T20:22:01.563Z,13.47
2019-05-15T20:25:08.274Z,13.21
2019-05-15T20:28:11.907Z,13.15
2019-05-15T20:31:15.116Z,13.13
2019-05-15T20:34:18.136Z,13.05
2019-05-15T20:37:21.174Z,12.59
2019-05-15T20:40:24.352Z,12.56
2019-05-15T20:43:28.010Z,12.50
2019-05-15T20:46:31.321Z,12.45
2019-05-15T20:49:34.244Z,12.64
2019-05-15T20:52:39.374Z,13.03
2019-05-15T20:55:43.219Z,12.52
2019-05-15T20:58:47.846Z,12.52
2019-05-15T21:01:51.311Z,13.06
2019-05-15T21:04:54.499Z,12.92
2019-05-15T21:07:57.665Z,12.71
2019-05-15T21:11:00.649Z,12.69
2019-05-15T21:14:03.853Z,12.57
2019-05-15T21:17:08.267Z,12.53
2019-05-15T21:20:12.059Z,12.60
2019-05-15T21:23:14.969Z,12.51
2019-05-15T21:26:18.763Z,12.57
2019-05-15T21:29:21.989Z,12.65
2019-05-15T21:32:25.232Z,12.64
2019-05-15T21:35:30.392Z,12.67
2019-05-15T21:38:33.338Z,12.77
2019-05-15T21:41:38.514Z,12.79
2019-05-15T21:44:41.099Z,12.85
2019-05-15T21:47:44.033Z,12.61
2019-05-15T21:50:48.317Z,12.58
2019-05-15T21:53:51.497Z,12.38
2019-05-15T21:57:06.653Z,12.48
2019-05-15T22:00:00.670Z,12.22
2019-05-15T22:03:05.200Z,12.42
2019-05-15T22:06:08.740Z,12.21
2019-05-15T22:09:18.260Z,12.51
2019-05-15T22:12:21.242Z,12.44
2019-05-15T22:15:24.270Z,12.59
2019-05-15T22:18:28.041Z,12.50
2019-05-15T22:21:31.764Z,12.37
2019-05-15T22:24:35.008Z,12.15
2019-05-15T22:27:38.449Z,12.25
2019-05-15T22:30:41.469Z,12.11
2019-05-15T22:33:44.371Z,12.00
2019-05-15T22:36:50.541Z,11.96
2019-05-15T22:39:53.311Z,11.91
2019-05-15T22:42:58.849Z,11.84
2019-05-15T22:46:01.103Z,11.38
2019-05-15T22:49:04.001Z,11.53
2019-05-15T22:52:08.549Z,11.45
2019-05-15T22:55:12.345Z,11.29
2019-05-15T22:58:15.570Z,11.19
2019-05-15T23:01:18.918Z,11.24
2019-05-15T23:04:23.212Z,11.24
2019-05-15T23:07:28.109Z,11.42
2019-05-15T23:10:31.563Z,11.47
2019-05-15T23:13:34.486Z,11.59
2019-05-15T23:16:39.085Z,11.63
2019-05-15T23:19:42.230Z,11.61
2019-05-15T23:22:45.162Z,11.41
2019-05-15T23:25:49.181Z,11.42
2019-05-15T23:28:52.150Z,11.53
2019-05-15T23:31:55.050Z,11.42
2019-05-15T23:34:58.458Z,11.38
2019-05-15T23:38:01.471Z,11.26
2019-05-15T23:41:04.402Z,11.41
2019-05-15T23:44:08.261Z,11.29
2019-05-15T23:47:11.328Z,11.16
2019-05-15T23:50:14.611Z,11.43
2019-05-15T23:53:19.581Z,11.36
2019-05-15T23:56:22.849Z,11.43
2019-05-15T23:59:28.064Z,11.52
